Aviation Digital Data Service (ADDS)

Output produced by METARs form (0049 UTC 06 December 2016)
found at http://aviationweather.gov/adds/metars/
 
KJHW 052340Z 0600/0624 25006KT P6SM OVC030 
     FM060300 25005KT P6SM BKN025 
     FM060800 VRB03KT P6SM SCT015 
     FM061200 12008KT P6SM BKN200 
     FM061900 14014G22KT 6SM -RA OVC040 
     FM062100 15014G22KT 5SM -RA OVC025 AMD LTD TO CLD VIS AND WIND